sensor_id;sensor_type;location;lat;lon;timestamp;P1;durP1;ratioP1;P2;durP2;ratioP2
19788;SDS011;10054;59.332;18.244;2023-06-22T00:00:35;7.00;;;6.37;;
19788;SDS011;10054;59.332;18.244;2023-06-22T00:03:05;7.70;;;6.92;;
19788;SDS011;10054;59.332;18.244;2023-06-22T00:05:34;7.25;;;6.65;;
19788;SDS011;10054;59.332;18.244;2023-06-22T00:08:03;7.00;;;6.40;;
19788;SDS011;10054;59.332;18.244;2023-06-22T00:10:33;7.50;;;6.75;;
19788;SDS011;10054;59.332;18.244;2023-06-22T00:13:02;9.25;;;7.05;;
19788;SDS011;10054;59.332;18.244;2023-06-22T00:15:31;7.70;;;7.00;;
19788;SDS011;10054;59.332;18.244;2023-06-22T00:18:00;7.30;;;6.60;;
19788;SDS011;10054;59.332;18.244;2023-06-22T00:20:29;7.17;;;6.50;;
19788;SDS011;10054;59.332;18.244;2023-06-22T00:22:59;6.83;;;6.28;;
19788;SDS011;10054;59.332;18.244;2023-06-22T00:25:28;7.20;;;6.60;;
19788;SDS011;10054;59.332;18.244;2023-06-22T00:27:57;6.70;;;6.03;;
19788;SDS011;10054;59.332;18.244;2023-06-22T00:30:27;7.55;;;6.83;;
19788;SDS011;10054;59.332;18.244;2023-06-22T00:32:56;6.95;;;6.35;;
19788;SDS011;10054;59.332;18.244;2023-06-22T00:35:26;8.23;;;7.12;;
19788;SDS011;10054;59.332;18.244;2023-06-22T00:37:56;7.20;;;6.50;;
19788;SDS011;10054;59.332;18.244;2023-06-22T00:40:31;7.75;;;6.95;;
19788;SDS011;10054;59.332;18.244;2023-06-22T00:43:01;7.25;;;6.60;;
19788;SDS011;10054;59.332;18.244;2023-06-22T00:45:31;7.58;;;7.03;;
19788;SDS011;10054;59.332;18.244;2023-06-22T00:48:00;8.78;;;7.78;;
19788;SDS011;10054;59.332;18.244;2023-06-22T00:50:30;8.20;;;7.50;;
19788;SDS011;10054;59.332;18.244;2023-06-22T00:53:02;7.08;;;6.40;;
19788;SDS011;10054;59.332;18.244;2023-06-22T00:55:41;7.85;;;7.15;;
19788;SDS011;10054;59.332;18.244;2023-06-22T00:58:09;7.30;;;6.70;;
19788;SDS011;10054;59.332;18.244;2023-06-22T01:00:39;8.18;;;7.47;;
19788;SDS011;10054;59.332;18.244;2023-06-22T01:03:08;8.00;;;7.30;;
19788;SDS011;10054;59.332;18.244;2023-06-22T01:05:38;7.30;;;6.70;;
19788;SDS011;10054;59.332;18.244;2023-06-22T01:11:00;7.55;;;6.85;;
19788;SDS011;10054;59.332;18.244;2023-06-22T01:18:55;8.18;;;7.47;;
19788;SDS011;10054;59.332;18.244;2023-06-22T01:21:28;8.13;;;7.40;;
19788;SDS011;10054;59.332;18.244;2023-06-22T01:29:44;8.55;;;7.75;;
19788;SDS011;10054;59.332;18.244;2023-06-22T01:32:13;8.75;;;7.87;;
19788;SDS011;10054;59.332;18.244;2023-06-22T01:34:43;8.33;;;7.62;;
19788;SDS011;10054;59.332;18.244;2023-06-22T01:37:13;9.20;;;8.30;;
19788;SDS011;10054;59.332;18.244;2023-06-22T01:39:43;8.70;;;8.00;;
19788;SDS011;10054;59.332;18.244;2023-06-22T01:42:13;9.03;;;8.20;;
19788;SDS011;10054;59.332;18.244;2023-06-22T01:44:42;9.13;;;8.25;;
19788;SDS011;10054;59.332;18.244;2023-06-22T01:47:12;8.90;;;8.10;;
19788;SDS011;10054;59.332;18.244;2023-06-22T01:49:43;9.23;;;8.30;;
19788;SDS011;10054;59.332;18.244;2023-06-22T01:52:14;8.63;;;7.83;;
19788;SDS011;10054;59.332;18.244;2023-06-22T01:54:43;8.85;;;7.95;;
19788;SDS011;10054;59.332;18.244;2023-06-22T01:57:13;9.10;;;8.23;;
19788;SDS011;10054;59.332;18.244;2023-06-22T01:59:52;8.80;;;8.00;;
19788;SDS011;10054;59.332;18.244;2023-06-22T02:02:27;8.45;;;7.75;;
19788;SDS011;10054;59.332;18.244;2023-06-22T02:05:03;9.30;;;8.50;;
19788;SDS011;10054;59.332;18.244;2023-06-22T02:07:34;8.70;;;8.00;;
19788;SDS011;10054;59.332;18.244;2023-06-22T02:10:05;9.48;;;8.68;;
19788;SDS011;10054;59.332;18.244;2023-06-22T02:12:38;9.20;;;8.30;;
19788;SDS011;10054;59.332;18.244;2023-06-22T02:15:09;8.53;;;7.85;;
19788;SDS011;10054;59.332;18.244;2023-06-22T02:17:40;9.33;;;8.48;;
19788;SDS011;10054;59.332;18.244;2023-06-22T02:20:12;9.05;;;8.25;;
19788;SDS011;10054;59.332;18.244;2023-06-22T02:22:42;9.43;;;8.38;;
19788;SDS011;10054;59.332;18.244;2023-06-22T02:25:11;9.63;;;8.80;;
19788;SDS011;10054;59.332;18.244;2023-06-22T02:27:40;9.50;;;8.70;;
19788;SDS011;10054;59.332;18.244;2023-06-22T02:30:08;10.43;;;9.03;;
19788;SDS011;10054;59.332;18.244;2023-06-22T02:32:38;10.08;;;9.25;;
19788;SDS011;10054;59.332;18.244;2023-06-22T02:35:12;9.80;;;9.00;;
19788;SDS011;10054;59.332;18.244;2023-06-22T02:37:40;10.00;;;9.10;;
19788;SDS011;10054;59.332;18.244;2023-06-22T02:40:09;10.32;;;9.33;;
19788;SDS011;10054;59.332;18.244;2023-06-22T02:42:39;10.13;;;9.23;;
19788;SDS011;10054;59.332;18.244;2023-06-22T02:45:08;9.08;;;8.28;;
19788;SDS011;10054;59.332;18.244;2023-06-22T02:47:37;10.03;;;9.18;;
19788;SDS011;10054;59.332;18.244;2023-06-22T02:50:07;9.90;;;9.10;;
19788;SDS011;10054;59.332;18.244;2023-06-22T02:52:36;9.40;;;8.60;;
19788;SDS011;10054;59.332;18.244;2023-06-22T02:55:06;9.48;;;8.65;;
19788;SDS011;10054;59.332;18.244;2023-06-22T02:57:35;10.20;;;9.40;;
19788;SDS011;10054;59.332;18.244;2023-06-22T03:00:05;9.20;;;8.45;;
19788;SDS011;10054;59.332;18.244;2023-06-22T03:02:38;10.55;;;8.58;;
19788;SDS011;10054;59.332;18.244;2023-06-22T03:05:07;9.55;;;8.75;;
19788;SDS011;10054;59.332;18.244;2023-06-22T03:07:38;9.93;;;9.13;;
19788;SDS011;10054;59.332;18.244;2023-06-22T03:10:10;9.40;;;8.60;;
19788;SDS011;10054;59.332;18.244;2023-06-22T03:12:39;9.08;;;8.28;;
19788;SDS011;10054;59.332;18.244;2023-06-22T03:15:09;9.00;;;8.20;;
19788;SDS011;10054;59.332;18.244;2023-06-22T03:17:39;9.23;;;8.53;;
19788;SDS011;10054;59.332;18.244;2023-06-22T03:20:09;8.58;;;7.87;;
19788;SDS011;10054;59.332;18.244;2023-06-22T03:22:39;8.75;;;7.95;;
19788;SDS011;10054;59.332;18.244;2023-06-22T03:25:09;8.95;;;8.25;;
19788;SDS011;10054;59.332;18.244;2023-06-22T03:27:41;9.18;;;8.40;;
19788;SDS011;10054;59.332;18.244;2023-06-22T03:30:11;9.15;;;8.35;;
19788;SDS011;10054;59.332;18.244;2023-06-22T03:32:40;9.35;;;8.55;;
19788;SDS011;10054;59.332;18.244;2023-06-22T03:35:10;9.28;;;8.48;;
19788;SDS011;10054;59.332;18.244;2023-06-22T03:37:40;9.05;;;8.28;;
19788;SDS011;10054;59.332;18.244;2023-06-22T03:40:09;8.38;;;7.75;;
19788;SDS011;10054;59.332;18.244;2023-06-22T03:42:39;9.30;;;8.55;;
19788;SDS011;10054;59.332;18.244;2023-06-22T03:45:09;9.23;;;8.53;;
19788;SDS011;10054;59.332;18.244;2023-06-22T03:47:38;8.98;;;8.18;;
19788;SDS011;10054;59.332;18.244;2023-06-22T03:50:08;9.98;;;9.03;;
19788;SDS011;10054;59.332;18.244;2023-06-22T03:52:36;9.25;;;8.55;;
19788;SDS011;10054;59.332;18.244;2023-06-22T03:55:06;9.23;;;8.33;;
19788;SDS011;10054;59.332;18.244;2023-06-22T03:57:35;9.10;;;8.28;;
19788;SDS011;10054;59.332;18.244;2023-06-22T04:00:04;8.78;;;7.97;;
19788;SDS011;10054;59.332;18.244;2023-06-22T04:02:41;9.63;;;8.83;;
19788;SDS011;10054;59.332;18.244;2023-06-22T04:05:10;8.88;;;8.18;;
19788;SDS011;10054;59.332;18.244;2023-06-22T04:07:39;8.90;;;8.10;;
19788;SDS011;10054;59.332;18.244;2023-06-22T04:10:08;9.48;;;8.68;;
19788;SDS011;10054;59.332;18.244;2023-06-22T04:12:37;9.13;;;8.40;;
19788;SDS011;10054;59.332;18.244;2023-06-22T04:15:06;8.75;;;8.05;;
19788;SDS011;10054;59.332;18.244;2023-06-22T04:17:35;9.70;;;8.85;;
19788;SDS011;10054;59.332;18.244;2023-06-22T04:20:04;8.95;;;8.20;;
19788;SDS011;10054;59.332;18.244;2023-06-22T04:22:34;9.03;;;8.33;;
19788;SDS011;10054;59.332;18.244;2023-06-22T04:25:03;9.15;;;8.35;;
19788;SDS011;10054;59.332;18.244;2023-06-22T04:27:35;9.20;;;8.50;;
19788;SDS011;10054;59.332;18.244;2023-06-22T04:30:06;9.10;;;8.30;;
19788;SDS011;10054;59.332;18.244;2023-06-22T04:32:35;8.73;;;8.03;;
19788;SDS011;10054;59.332;18.244;2023-06-22T04:35:04;8.70;;;8.10;;
19788;SDS011;10054;59.332;18.244;2023-06-22T04:37:33;9.33;;;8.53;;
19788;SDS011;10054;59.332;18.244;2023-06-22T04:40:02;8.63;;;7.97;;
19788;SDS011;10054;59.332;18.244;2023-06-22T04:42:33;8.28;;;7.67;;
19788;SDS011;10054;59.332;18.244;2023-06-22T04:45:03;8.35;;;7.60;;
19788;SDS011;10054;59.332;18.244;2023-06-22T04:47:32;8.53;;;7.85;;
19788;SDS011;10054;59.332;18.244;2023-06-22T04:50:01;8.03;;;7.42;;
19788;SDS011;10054;59.332;18.244;2023-06-22T04:52:31;7.78;;;7.17;;
19788;SDS011;10054;59.332;18.244;2023-06-22T04:55:00;8.65;;;7.95;;
19788;SDS011;10054;59.332;18.244;2023-06-22T04:57:30;7.83;;;7.22;;
19788;SDS011;10054;59.332;18.244;2023-06-22T05:00:02;8.10;;;7.40;;
19788;SDS011;10054;59.332;18.244;2023-06-22T05:02:42;8.48;;;7.03;;
19788;SDS011;10054;59.332;18.244;2023-06-22T05:05:12;7.72;;;6.97;;
19788;SDS011;10054;59.332;18.244;2023-06-22T05:07:42;7.12;;;6.62;;
19788;SDS011;10054;59.332;18.244;2023-06-22T05:10:14;7.22;;;6.60;;
19788;SDS011;10054;59.332;18.244;2023-06-22T05:12:43;6.67;;;5.95;;
19788;SDS011;10054;59.332;18.244;2023-06-22T05:15:11;7.37;;;6.80;;
19788;SDS011;10054;59.332;18.244;2023-06-22T05:17:41;7.72;;;6.70;;
19788;SDS011;10054;59.332;18.244;2023-06-22T05:20:11;8.15;;;6.85;;
19788;SDS011;10054;59.332;18.244;2023-06-22T05:22:42;7.15;;;6.55;;
19788;SDS011;10054;59.332;18.244;2023-06-22T05:25:11;7.70;;;6.60;;
19788;SDS011;10054;59.332;18.244;2023-06-22T05:27:40;7.62;;;6.92;;
19788;SDS011;10054;59.332;18.244;2023-06-22T05:30:11;6.90;;;6.30;;
19788;SDS011;10054;59.332;18.244;2023-06-22T05:32:39;7.42;;;6.72;;
19788;SDS011;10054;59.332;18.244;2023-06-22T05:35:08;6.80;;;6.30;;
19788;SDS011;10054;59.332;18.244;2023-06-22T05:37:37;6.78;;;6.28;;
19788;SDS011;10054;59.332;18.244;2023-06-22T05:40:06;5.90;;;5.50;;
19788;SDS011;10054;59.332;18.244;2023-06-22T05:42:36;6.60;;;5.97;;
19788;SDS011;10054;59.332;18.244;2023-06-22T05:45:05;6.30;;;5.70;;
19788;SDS011;10054;59.332;18.244;2023-06-22T05:47:34;6.80;;;6.30;;
19788;SDS011;10054;59.332;18.244;2023-06-22T05:50:03;5.87;;;5.37;;
19788;SDS011;10054;59.332;18.244;2023-06-22T05:52:36;6.37;;;5.75;;
19788;SDS011;10054;59.332;18.244;2023-06-22T05:55:05;5.97;;;5.47;;
19788;SDS011;10054;59.332;18.244;2023-06-22T05:57:34;6.65;;;5.80;;
19788;SDS011;10054;59.332;18.244;2023-06-22T06:00:03;5.97;;;5.47;;
19788;SDS011;10054;59.332;18.244;2023-06-22T06:02:34;6.67;;;6.17;;
19788;SDS011;10054;59.332;18.244;2023-06-22T06:05:03;6.47;;;5.47;;
19788;SDS011;10054;59.332;18.244;2023-06-22T06:07:33;6.00;;;5.50;;
19788;SDS011;10054;59.332;18.244;2023-06-22T06:10:02;5.70;;;5.20;;
19788;SDS011;10054;59.332;18.244;2023-06-22T06:12:32;6.05;;;5.50;;
19788;SDS011;10054;59.332;18.244;2023-06-22T06:15:02;6.22;;;5.67;;
19788;SDS011;10054;59.332;18.244;2023-06-22T06:17:31;5.62;;;5.12;;
19788;SDS011;10054;59.332;18.244;2023-06-22T06:20:00;5.22;;;4.83;;
19788;SDS011;10054;59.332;18.244;2023-06-22T06:22:31;5.58;;;5.17;;
19788;SDS011;10054;59.332;18.244;2023-06-22T06:25:00;5.70;;;5.20;;
19788;SDS011;10054;59.332;18.244;2023-06-22T06:27:29;5.58;;;5.08;;
19788;SDS011;10054;59.332;18.244;2023-06-22T06:29:57;5.22;;;4.83;;
19788;SDS011;10054;59.332;18.244;2023-06-22T06:32:27;5.55;;;5.15;;
19788;SDS011;10054;59.332;18.244;2023-06-22T06:34:56;5.87;;;5.37;;
19788;SDS011;10054;59.332;18.244;2023-06-22T06:37:25;5.70;;;5.30;;
19788;SDS011;10054;59.332;18.244;2023-06-22T06:39:54;6.28;;;5.37;;
19788;SDS011;10054;59.332;18.244;2023-06-22T06:42:23;6.22;;;5.80;;
19788;SDS011;10054;59.332;18.244;2023-06-22T06:44:52;5.83;;;5.35;;
19788;SDS011;10054;59.332;18.244;2023-06-22T06:47:21;5.92;;;5.42;;
19788;SDS011;10054;59.332;18.244;2023-06-22T06:49:50;5.75;;;5.25;;
19788;SDS011;10054;59.332;18.244;2023-06-22T06:52:19;5.67;;;5.28;;
19788;SDS011;10054;59.332;18.244;2023-06-22T06:54:48;7.25;;;5.10;;
19788;SDS011;10054;59.332;18.244;2023-06-22T06:57:18;7.67;;;5.17;;
19788;SDS011;10054;59.332;18.244;2023-06-22T06:59:47;6.42;;;4.80;;
19788;SDS011;10054;59.332;18.244;2023-06-22T07:02:16;9.35;;;5.15;;
19788;SDS011;10054;59.332;18.244;2023-06-22T07:04:46;5.47;;;4.75;;
19788;SDS011;10054;59.332;18.244;2023-06-22T07:07:15;5.78;;;5.12;;
19788;SDS011;10054;59.332;18.244;2023-06-22T07:09:44;5.10;;;4.62;;
19788;SDS011;10054;59.332;18.244;2023-06-22T07:12:12;5.00;;;4.58;;
19788;SDS011;10054;59.332;18.244;2023-06-22T07:14:42;4.90;;;4.15;;
19788;SDS011;10054;59.332;18.244;2023-06-22T07:17:10;4.62;;;4.22;;
19788;SDS011;10054;59.332;18.244;2023-06-22T07:19:39;5.37;;;4.87;;
19788;SDS011;10054;59.332;18.244;2023-06-22T07:22:08;4.75;;;4.25;;
19788;SDS011;10054;59.332;18.244;2023-06-22T07:24:37;4.83;;;4.37;;
19788;SDS011;10054;59.332;18.244;2023-06-22T07:27:06;5.12;;;4.25;;
19788;SDS011;10054;59.332;18.244;2023-06-22T07:29:36;4.60;;;4.20;;
19788;SDS011;10054;59.332;18.244;2023-06-22T07:32:07;5.05;;;4.10;;
19788;SDS011;10054;59.332;18.244;2023-06-22T07:34:36;4.22;;;3.83;;
19788;SDS011;10054;59.332;18.244;2023-06-22T07:37:05;5.15;;;4.15;;
19788;SDS011;10054;59.332;18.244;2023-06-22T07:39:34;6.83;;;4.20;;
19788;SDS011;10054;59.332;18.244;2023-06-22T07:42:04;4.37;;;3.98;;
19788;SDS011;10054;59.332;18.244;2023-06-22T07:44:33;4.40;;;3.95;;
19788;SDS011;10054;59.332;18.244;2023-06-22T07:47:02;4.58;;;4.17;;
19788;SDS011;10054;59.332;18.244;2023-06-22T07:49:31;7.00;;;4.37;;
19788;SDS011;10054;59.332;18.244;2023-06-22T07:51:59;5.85;;;4.40;;
19788;SDS011;10054;59.332;18.244;2023-06-22T07:54:28;5.55;;;4.30;;
19788;SDS011;10054;59.332;18.244;2023-06-22T07:56:57;4.58;;;4.17;;
19788;SDS011;10054;59.332;18.244;2023-06-22T07:59:26;7.08;;;4.60;;
19788;SDS011;10054;59.332;18.244;2023-06-22T08:01:54;5.22;;;4.00;;
19788;SDS011;10054;59.332;18.244;2023-06-22T08:04:23;6.40;;;4.17;;
19788;SDS011;10054;59.332;18.244;2023-06-22T08:06:53;4.17;;;3.80;;
19788;SDS011;10054;59.332;18.244;2023-06-22T08:09:23;5.70;;;4.28;;
19788;SDS011;10054;59.332;18.244;2023-06-22T08:11:51;4.33;;;3.80;;
19788;SDS011;10054;59.332;18.244;2023-06-22T08:14:25;5.12;;;4.03;;
19788;SDS011;10054;59.332;18.244;2023-06-22T08:16:55;4.30;;;3.90;;
19788;SDS011;10054;59.332;18.244;2023-06-22T08:19:24;4.67;;;3.70;;
19788;SDS011;10054;59.332;18.244;2023-06-22T08:21:54;4.55;;;3.80;;
19788;SDS011;10054;59.332;18.244;2023-06-22T08:24:22;4.62;;;4.22;;
19788;SDS011;10054;59.332;18.244;2023-06-22T08:26:51;4.50;;;4.12;;
19788;SDS011;10054;59.332;18.244;2023-06-22T08:29:21;5.55;;;3.80;;
19788;SDS011;10054;59.332;18.244;2023-06-22T08:31:49;7.00;;;3.90;;
19788;SDS011;10054;59.332;18.244;2023-06-22T08:34:18;6.10;;;4.10;;
19788;SDS011;10054;59.332;18.244;2023-06-22T08:36:48;4.05;;;3.72;;
19788;SDS011;10054;59.332;18.244;2023-06-22T08:39:19;4.70;;;4.30;;
19788;SDS011;10054;59.332;18.244;2023-06-22T08:41:49;4.05;;;3.62;;
19788;SDS011;10054;59.332;18.244;2023-06-22T08:44:18;4.40;;;4.00;;
19788;SDS011;10054;59.332;18.244;2023-06-22T08:46:48;4.70;;;3.92;;
19788;SDS011;10054;59.332;18.244;2023-06-22T08:49:16;4.00;;;3.67;;
19788;SDS011;10054;59.332;18.244;2023-06-22T08:51:45;4.83;;;3.90;;
19788;SDS011;10054;59.332;18.244;2023-06-22T08:54:16;5.75;;;3.85;;
19788;SDS011;10054;59.332;18.244;2023-06-22T08:56:44;4.10;;;3.55;;
19788;SDS011;10054;59.332;18.244;2023-06-22T08:59:13;4.35;;;3.95;;
19788;SDS011;10054;59.332;18.244;2023-06-22T09:01:42;4.83;;;3.80;;
19788;SDS011;10054;59.332;18.244;2023-06-22T09:04:13;5.30;;;3.75;;
19788;SDS011;10054;59.332;18.244;2023-06-22T09:06:41;4.17;;;3.40;;
19788;SDS011;10054;59.332;18.244;2023-06-22T09:09:12;4.05;;;3.65;;
19788;SDS011;10054;59.332;18.244;2023-06-22T09:11:41;4.20;;;3.80;;
19788;SDS011;10054;59.332;18.244;2023-06-22T09:14:10;4.20;;;3.80;;
19788;SDS011;10054;59.332;18.244;2023-06-22T09:16:39;4.58;;;4.10;;
19788;SDS011;10054;59.332;18.244;2023-06-22T09:19:08;4.60;;;3.83;;
19788;SDS011;10054;59.332;18.244;2023-06-22T09:21:37;4.17;;;3.87;;
19788;SDS011;10054;59.332;18.244;2023-06-22T09:24:06;4.37;;;3.85;;
19788;SDS011;10054;59.332;18.244;2023-06-22T09:26:35;5.78;;;3.40;;
19788;SDS011;10054;59.332;18.244;2023-06-22T09:29:07;3.60;;;3.30;;
19788;SDS011;10054;59.332;18.244;2023-06-22T09:31:36;4.40;;;3.60;;
19788;SDS011;10054;59.332;18.244;2023-06-22T09:34:05;4.35;;;3.42;;
19788;SDS011;10054;59.332;18.244;2023-06-22T09:36:34;3.80;;;3.50;;
19788;SDS011;10054;59.332;18.244;2023-06-22T09:39:03;3.65;;;3.35;;
19788;SDS011;10054;59.332;18.244;2023-06-22T09:41:33;3.70;;;3.00;;
19788;SDS011;10054;59.332;18.244;2023-06-22T09:44:01;4.10;;;3.70;;
19788;SDS011;10054;59.332;18.244;2023-06-22T09:46:30;7.37;;;3.60;;
19788;SDS011;10054;59.332;18.244;2023-06-22T09:48:59;3.70;;;3.35;;
19788;SDS011;10054;59.332;18.244;2023-06-22T09:51:28;3.60;;;3.30;;
19788;SDS011;10054;59.332;18.244;2023-06-22T09:53:56;5.90;;;3.60;;
19788;SDS011;10054;59.332;18.244;2023-06-22T09:56:25;4.10;;;3.22;;
19788;SDS011;10054;59.332;18.244;2023-06-22T09:58:55;3.70;;;3.40;;
19788;SDS011;10054;59.332;18.244;2023-06-22T10:01:24;5.30;;;3.33;;
19788;SDS011;10054;59.332;18.244;2023-06-22T10:03:53;3.60;;;3.30;;
19788;SDS011;10054;59.332;18.244;2023-06-22T10:06:23;6.62;;;3.40;;
19788;SDS011;10054;59.332;18.244;2023-06-22T10:08:51;4.58;;;3.40;;
19788;SDS011;10054;59.332;18.244;2023-06-22T10:11:20;3.67;;;3.35;;
19788;SDS011;10054;59.332;18.244;2023-06-22T10:13:50;4.05;;;3.65;;
19788;SDS011;10054;59.332;18.244;2023-06-22T10:16:19;6.65;;;3.37;;
19788;SDS011;10054;59.332;18.244;2023-06-22T10:18:48;4.00;;;3.58;;
19788;SDS011;10054;59.332;18.244;2023-06-22T10:21:17;4.50;;;3.40;;
19788;SDS011;10054;59.332;18.244;2023-06-22T10:23:46;3.12;;;2.92;;
19788;SDS011;10054;59.332;18.244;2023-06-22T10:26:14;3.67;;;3.10;;
19788;SDS011;10054;59.332;18.244;2023-06-22T10:28:43;5.60;;;3.00;;
19788;SDS011;10054;59.332;18.244;2023-06-22T10:31:12;4.33;;;3.05;;
19788;SDS011;10054;59.332;18.244;2023-06-22T10:33:40;3.33;;;2.72;;
19788;SDS011;10054;59.332;18.244;2023-06-22T10:36:10;4.00;;;3.00;;
19788;SDS011;10054;59.332;18.244;2023-06-22T10:38:39;3.60;;;2.77;;
19788;SDS011;10054;59.332;18.244;2023-06-22T10:41:08;4.35;;;2.50;;
19788;SDS011;10054;59.332;18.244;2023-06-22T10:43:37;3.55;;;2.10;;
19788;SDS011;10054;59.332;18.244;2023-06-22T10:46:06;3.83;;;2.70;;
19788;SDS011;10054;59.332;18.244;2023-06-22T10:48:35;4.05;;;2.40;;
19788;SDS011;10054;59.332;18.244;2023-06-22T10:51:04;5.17;;;2.70;;
19788;SDS011;10054;59.332;18.244;2023-06-22T10:53:32;3.30;;;2.85;;
19788;SDS011;10054;59.332;18.244;2023-06-22T10:56:01;2.70;;;2.50;;
19788;SDS011;10054;59.332;18.244;2023-06-22T10:58:30;2.85;;;2.37;;
19788;SDS011;10054;59.332;18.244;2023-06-22T11:00:59;26.07;;;23.87;;
19788;SDS011;10054;59.332;18.244;2023-06-22T11:03:29;5.00;;;4.60;;
19788;SDS011;10054;59.332;18.244;2023-06-22T11:05:58;5.53;;;2.80;;
19788;SDS011;10054;59.332;18.244;2023-06-22T11:08:27;3.50;;;2.80;;
19788;SDS011;10054;59.332;18.244;2023-06-22T11:10:56;2.83;;;2.52;;
19788;SDS011;10054;59.332;18.244;2023-06-22T11:13:25;2.83;;;2.50;;
19788;SDS011;10054;59.332;18.244;2023-06-22T11:15:54;3.50;;;2.45;;
19788;SDS011;10054;59.332;18.244;2023-06-22T11:18:23;5.45;;;2.77;;
19788;SDS011;10054;59.332;18.244;2023-06-22T11:20:52;2.85;;;2.30;;
19788;SDS011;10054;59.332;18.244;2023-06-22T11:23:21;4.00;;;2.90;;
19788;SDS011;10054;59.332;18.244;2023-06-22T11:25:49;3.12;;;2.65;;
19788;SDS011;10054;59.332;18.244;2023-06-22T11:28:18;5.08;;;2.40;;
19788;SDS011;10054;59.332;18.244;2023-06-22T11:30:47;2.70;;;2.50;;
19788;SDS011;10054;59.332;18.244;2023-06-22T11:33:16;3.12;;;2.12;;
19788;SDS011;10054;59.332;18.244;2023-06-22T11:35:45;8.05;;;2.45;;
19788;SDS011;10054;59.332;18.244;2023-06-22T11:38:14;4.85;;;2.30;;
19788;SDS011;10054;59.332;18.244;2023-06-22T11:40:43;2.40;;;2.30;;
19788;SDS011;10054;59.332;18.244;2023-06-22T11:43:12;2.37;;;2.20;;
19788;SDS011;10054;59.332;18.244;2023-06-22T11:45:41;4.05;;;2.00;;
19788;SDS011;10054;59.332;18.244;2023-06-22T11:48:10;5.30;;;2.20;;
19788;SDS011;10054;59.332;18.244;2023-06-22T11:50:39;3.75;;;2.05;;
19788;SDS011;10054;59.332;18.244;2023-06-22T11:53:10;3.67;;;2.05;;
19788;SDS011;10054;59.332;18.244;2023-06-22T11:55:40;2.40;;;2.20;;
19788;SDS011;10054;59.332;18.244;2023-06-22T11:58:09;2.67;;;1.92;;
19788;SDS011;10054;59.332;18.244;2023-06-22T12:00:38;2.12;;;2.00;;
19788;SDS011;10054;59.332;18.244;2023-06-22T12:03:08;2.40;;;2.12;;
19788;SDS011;10054;59.332;18.244;2023-06-22T12:05:38;3.33;;;2.12;;
19788;SDS011;10054;59.332;18.244;2023-06-22T12:08:06;3.15;;;2.22;;
19788;SDS011;10054;59.332;18.244;2023-06-22T12:10:35;2.83;;;2.27;;
19788;SDS011;10054;59.332;18.244;2023-06-22T12:13:04;2.98;;;2.30;;
19788;SDS011;10054;59.332;18.244;2023-06-22T12:15:33;4.47;;;2.37;;
19788;SDS011;10054;59.332;18.244;2023-06-22T12:18:02;2.83;;;2.50;;
19788;SDS011;10054;59.332;18.244;2023-06-22T12:20:31;2.37;;;2.00;;
19788;SDS011;10054;59.332;18.244;2023-06-22T12:22:59;3.70;;;2.00;;
19788;SDS011;10054;59.332;18.244;2023-06-22T12:25:28;2.47;;;2.27;;
19788;SDS011;10054;59.332;18.244;2023-06-22T12:27:57;3.40;;;2.22;;
19788;SDS011;10054;59.332;18.244;2023-06-22T12:30:26;2.50;;;2.30;;
19788;SDS011;10054;59.332;18.244;2023-06-22T12:32:55;2.25;;;2.15;;
19788;SDS011;10054;59.332;18.244;2023-06-22T12:35:24;3.20;;;2.42;;
19788;SDS011;10054;59.332;18.244;2023-06-22T12:37:52;2.95;;;2.75;;
19788;SDS011;10054;59.332;18.244;2023-06-22T12:40:21;3.25;;;2.75;;
19788;SDS011;10054;59.332;18.244;2023-06-22T12:42:50;3.55;;;2.40;;
19788;SDS011;10054;59.332;18.244;2023-06-22T12:45:19;3.02;;;2.22;;
19788;SDS011;10054;59.332;18.244;2023-06-22T12:47:48;2.75;;;2.52;;
19788;SDS011;10054;59.332;18.244;2023-06-22T12:50:17;3.20;;;2.58;;
19788;SDS011;10054;59.332;18.244;2023-06-22T12:52:46;4.12;;;2.42;;
19788;SDS011;10054;59.332;18.244;2023-06-22T12:55:15;2.50;;;2.30;;
19788;SDS011;10054;59.332;18.244;2023-06-22T12:57:43;4.03;;;2.40;;
19788;SDS011;10054;59.332;18.244;2023-06-22T13:00:12;4.12;;;2.50;;
19788;SDS011;10054;59.332;18.244;2023-06-22T13:02:42;4.53;;;2.75;;
19788;SDS011;10054;59.332;18.244;2023-06-22T13:05:11;2.90;;;2.70;;
19788;SDS011;10054;59.332;18.244;2023-06-22T13:07:40;3.45;;;2.62;;
19788;SDS011;10054;59.332;18.244;2023-06-22T13:10:09;4.35;;;2.65;;
19788;SDS011;10054;59.332;18.244;2023-06-22T13:12:38;2.92;;;2.60;;
19788;SDS011;10054;59.332;18.244;2023-06-22T13:15:07;2.80;;;2.60;;
19788;SDS011;10054;59.332;18.244;2023-06-22T13:17:36;5.90;;;2.87;;
19788;SDS011;10054;59.332;18.244;2023-06-22T13:20:05;4.33;;;2.67;;
19788;SDS011;10054;59.332;18.244;2023-06-22T13:22:34;3.70;;;2.58;;
19788;SDS011;10054;59.332;18.244;2023-06-22T13:25:10;2.67;;;2.47;;
19788;SDS011;10054;59.332;18.244;2023-06-22T13:27:40;2.50;;;2.30;;
19788;SDS011;10054;59.332;18.244;2023-06-22T13:30:09;4.08;;;2.70;;
19788;SDS011;10054;59.332;18.244;2023-06-22T13:32:38;3.87;;;2.47;;
19788;SDS011;10054;59.332;18.244;2023-06-22T13:35:08;3.33;;;2.95;;
19788;SDS011;10054;59.332;18.244;2023-06-22T13:37:38;4.80;;;2.80;;
19788;SDS011;10054;59.332;18.244;2023-06-22T13:40:07;3.37;;;2.55;;
19788;SDS011;10054;59.332;18.244;2023-06-22T13:42:36;5.22;;;3.00;;
19788;SDS011;10054;59.332;18.244;2023-06-22T13:45:05;2.67;;;2.47;;
19788;SDS011;10054;59.332;18.244;2023-06-22T13:47:35;2.98;;;2.67;;
19788;SDS011;10054;59.332;18.244;2023-06-22T13:50:04;3.83;;;2.45;;
19788;SDS011;10054;59.332;18.244;2023-06-22T13:52:34;3.98;;;2.80;;
19788;SDS011;10054;59.332;18.244;2023-06-22T13:55:03;2.87;;;2.67;;
19788;SDS011;10054;59.332;18.244;2023-06-22T13:57:33;2.77;;;2.58;;
19788;SDS011;10054;59.332;18.244;2023-06-22T14:00:02;2.90;;;2.70;;
19788;SDS011;10054;59.332;18.244;2023-06-22T14:02:34;3.50;;;2.90;;
19788;SDS011;10054;59.332;18.244;2023-06-22T14:05:03;3.75;;;2.60;;
19788;SDS011;10054;59.332;18.244;2023-06-22T14:07:32;3.05;;;2.70;;
19788;SDS011;10054;59.332;18.244;2023-06-22T14:10:01;3.08;;;2.77;;
19788;SDS011;10054;59.332;18.244;2023-06-22T14:12:30;3.10;;;2.80;;
19788;SDS011;10054;59.332;18.244;2023-06-22T14:14:58;2.70;;;2.50;;
19788;SDS011;10054;59.332;18.244;2023-06-22T14:17:27;2.95;;;2.75;;
19788;SDS011;10054;59.332;18.244;2023-06-22T14:19:56;2.65;;;2.45;;
19788;SDS011;10054;59.332;18.244;2023-06-22T14:22:25;6.47;;;2.50;;
19788;SDS011;10054;59.332;18.244;2023-06-22T14:24:55;3.50;;;2.60;;
19788;SDS011;10054;59.332;18.244;2023-06-22T14:27:25;2.83;;;2.60;;
19788;SDS011;10054;59.332;18.244;2023-06-22T14:29:54;4.70;;;2.60;;
19788;SDS011;10054;59.332;18.244;2023-06-22T14:32:24;4.12;;;2.55;;
19788;SDS011;10054;59.332;18.244;2023-06-22T14:34:53;2.98;;;2.42;;
19788;SDS011;10054;59.332;18.244;2023-06-22T14:37:21;3.67;;;2.83;;
19788;SDS011;10054;59.332;18.244;2023-06-22T14:39:50;2.77;;;2.58;;
19788;SDS011;10054;59.332;18.244;2023-06-22T14:42:19;2.83;;;2.50;;
19788;SDS011;10054;59.332;18.244;2023-06-22T14:44:48;4.17;;;2.45;;
19788;SDS011;10054;59.332;18.244;2023-06-22T14:47:17;5.12;;;2.60;;
19788;SDS011;10054;59.332;18.244;2023-06-22T14:49:48;3.25;;;2.87;;
19788;SDS011;10054;59.332;18.244;2023-06-22T14:52:16;2.72;;;2.22;;
19788;SDS011;10054;59.332;18.244;2023-06-22T14:54:45;2.70;;;2.50;;
19788;SDS011;10054;59.332;18.244;2023-06-22T14:57:14;3.77;;;2.40;;
19788;SDS011;10054;59.332;18.244;2023-06-22T14:59:45;2.95;;;2.60;;